sensor_id;sensor_type;location;lat;lon;timestamp;temperature;humidity
12156;DHT22;6141;49.092;8.516;2023-08-08T00:00:06;16.80;38.90
12156;DHT22;6141;49.092;8.516;2023-08-08T00:02:36;16.70;38.80
12156;DHT22;6141;49.092;8.516;2023-08-08T00:05:05;16.70;38.80
12156;DHT22;6141;49.092;8.516;2023-08-08T00:07:33;16.40;39.40
12156;DHT22;6141;49.092;8.516;2023-08-08T00:10:01;16.40;39.20
12156;DHT22;6141;49.092;8.516;2023-08-08T00:12:30;16.20;39.10
12156;DHT22;6141;49.092;8.516;2023-08-08T00:14:58;16.20;40.00
12156;DHT22;6141;49.092;8.516;2023-08-08T00:17:26;16.20;39.90
12156;DHT22;6141;49.092;8.516;2023-08-08T00:19:55;16.10;39.70
12156;DHT22;6141;49.092;8.516;2023-08-08T00:22:23;16.20;40.20
12156;DHT22;6141;49.092;8.516;2023-08-08T00:24:51;16.30;39.30
12156;DHT22;6141;49.092;8.516;2023-08-08T00:27:20;16.40;38.60
12156;DHT22;6141;49.092;8.516;2023-08-08T00:29:48;16.40;39.70
12156;DHT22;6141;49.092;8.516;2023-08-08T00:32:17;16.50;38.60
12156;DHT22;6141;49.092;8.516;2023-08-08T00:34:45;16.50;38.60
12156;DHT22;6141;49.092;8.516;2023-08-08T00:37:14;16.40;39.10
12156;DHT22;6141;49.092;8.516;2023-08-08T00:39:43;16.40;38.50
12156;DHT22;6141;49.092;8.516;2023-08-08T00:42:12;16.40;39.30
12156;DHT22;6141;49.092;8.516;2023-08-08T00:44:41;16.30;39.50
12156;DHT22;6141;49.092;8.516;2023-08-08T00:47:09;16.30;39.30
12156;DHT22;6141;49.092;8.516;2023-08-08T00:49:37;16.30;40.10
12156;DHT22;6141;49.092;8.516;2023-08-08T00:52:06;16.20;39.50
12156;DHT22;6141;49.092;8.516;2023-08-08T00:54:36;16.30;39.90
12156;DHT22;6141;49.092;8.516;2023-08-08T00:57:05;16.30;38.70
12156;DHT22;6141;49.092;8.516;2023-08-08T00:59:33;16.30;39.40
12156;DHT22;6141;49.092;8.516;2023-08-08T01:02:01;16.30;39.30
12156;DHT22;6141;49.092;8.516;2023-08-08T01:04:29;16.20;39.60
12156;DHT22;6141;49.092;8.516;2023-08-08T01:07:03;16.20;39.60
12156;DHT22;6141;49.092;8.516;2023-08-08T01:09:39;16.40;39.80
12156;DHT22;6141;49.092;8.516;2023-08-08T01:12:11;16.20;39.70
12156;DHT22;6141;49.092;8.516;2023-08-08T01:14:41;16.20;40.10
12156;DHT22;6141;49.092;8.516;2023-08-08T01:17:10;16.20;39.90
12156;DHT22;6141;49.092;8.516;2023-08-08T01:19:39;16.10;39.50
12156;DHT22;6141;49.092;8.516;2023-08-08T01:22:16;16.10;40.10
12156;DHT22;6141;49.092;8.516;2023-08-08T01:24:52;16.00;40.50
12156;DHT22;6141;49.092;8.516;2023-08-08T01:27:22;16.00;41.40
12156;DHT22;6141;49.092;8.516;2023-08-08T01:29:50;16.20;40.50
12156;DHT22;6141;49.092;8.516;2023-08-08T01:32:18;16.10;40.20
12156;DHT22;6141;49.092;8.516;2023-08-08T01:34:47;16.30;40.30
12156;DHT22;6141;49.092;8.516;2023-08-08T01:37:18;16.40;38.70
12156;DHT22;6141;49.092;8.516;2023-08-08T01:39:48;16.60;38.70
12156;DHT22;6141;49.092;8.516;2023-08-08T01:42:20;16.70;38.80
12156;DHT22;6141;49.092;8.516;2023-08-08T01:44:50;16.90;37.60
12156;DHT22;6141;49.092;8.516;2023-08-08T01:47:20;17.10;37.30
12156;DHT22;6141;49.092;8.516;2023-08-08T01:49:48;17.00;36.90
12156;DHT22;6141;49.092;8.516;2023-08-08T01:52:17;17.00;37.40
12156;DHT22;6141;49.092;8.516;2023-08-08T01:54:45;17.30;37.10
12156;DHT22;6141;49.092;8.516;2023-08-08T01:57:13;17.30;36.70
12156;DHT22;6141;49.092;8.516;2023-08-08T02:00:09;17.40;35.80
12156;DHT22;6141;49.092;8.516;2023-08-08T02:02:41;17.20;36.80
12156;DHT22;6141;49.092;8.516;2023-08-08T02:05:11;17.00;37.30
12156;DHT22;6141;49.092;8.516;2023-08-08T02:07:39;16.90;38.00
12156;DHT22;6141;49.092;8.516;2023-08-08T02:10:08;16.70;38.70
12156;DHT22;6141;49.092;8.516;2023-08-08T02:12:43;16.70;38.80
12156;DHT22;6141;49.092;8.516;2023-08-08T02:15:13;16.50;39.40
12156;DHT22;6141;49.092;8.516;2023-08-08T02:17:41;16.40;40.30
12156;DHT22;6141;49.092;8.516;2023-08-08T02:20:11;16.50;40.60
12156;DHT22;6141;49.092;8.516;2023-08-08T02:22:39;16.50;40.20
12156;DHT22;6141;49.092;8.516;2023-08-08T02:25:07;16.70;38.80
12156;DHT22;6141;49.092;8.516;2023-08-08T02:27:35;16.60;38.70
12156;DHT22;6141;49.092;8.516;2023-08-08T02:30:04;16.80;38.90
12156;DHT22;6141;49.092;8.516;2023-08-08T02:32:34;16.60;38.70
12156;DHT22;6141;49.092;8.516;2023-08-08T02:35:03;16.50;38.70
12156;DHT22;6141;49.092;8.516;2023-08-08T02:37:31;16.40;40.30
12156;DHT22;6141;49.092;8.516;2023-08-08T02:39:59;16.40;39.90
12156;DHT22;6141;49.092;8.516;2023-08-08T02:42:27;16.50;40.60
12156;DHT22;6141;49.092;8.516;2023-08-08T02:44:55;16.50;40.30
12156;DHT22;6141;49.092;8.516;2023-08-08T02:47:24;16.50;40.90
12156;DHT22;6141;49.092;8.516;2023-08-08T02:49:54;16.60;40.70
12156;DHT22;6141;49.092;8.516;2023-08-08T02:52:22;16.70;40.70
12156;DHT22;6141;49.092;8.516;2023-08-08T02:54:50;16.50;40.80
12156;DHT22;6141;49.092;8.516;2023-08-08T02:57:19;16.50;41.10
12156;DHT22;6141;49.092;8.516;2023-08-08T02:59:47;16.40;41.10
12156;DHT22;6141;49.092;8.516;2023-08-08T03:02:16;16.20;41.90
12156;DHT22;6141;49.092;8.516;2023-08-08T03:04:46;16.10;43.60
12156;DHT22;6141;49.092;8.516;2023-08-08T03:07:15;16.00;44.00
12156;DHT22;6141;49.092;8.516;2023-08-08T03:09:43;16.00;44.00
12156;DHT22;6141;49.092;8.516;2023-08-08T03:12:12;16.00;43.70
12156;DHT22;6141;49.092;8.516;2023-08-08T03:14:41;15.90;44.20
12156;DHT22;6141;49.092;8.516;2023-08-08T03:17:09;15.90;44.40
12156;DHT22;6141;49.092;8.516;2023-08-08T03:19:37;16.00;44.50
12156;DHT22;6141;49.092;8.516;2023-08-08T03:22:05;15.80;45.00
12156;DHT22;6141;49.092;8.516;2023-08-08T03:24:38;15.90;45.00
12156;DHT22;6141;49.092;8.516;2023-08-08T03:27:06;16.00;44.50
12156;DHT22;6141;49.092;8.516;2023-08-08T03:29:34;16.00;44.50
12156;DHT22;6141;49.092;8.516;2023-08-08T03:32:03;16.00;44.50
12156;DHT22;6141;49.092;8.516;2023-08-08T03:34:32;16.10;44.60
12156;DHT22;6141;49.092;8.516;2023-08-08T03:37:02;15.90;44.80
12156;DHT22;6141;49.092;8.516;2023-08-08T03:39:30;15.80;44.40
12156;DHT22;6141;49.092;8.516;2023-08-08T03:42:00;15.90;44.80
12156;DHT22;6141;49.092;8.516;2023-08-08T03:44:29;15.60;45.60
12156;DHT22;6141;49.092;8.516;2023-08-08T03:46:57;15.60;46.00
12156;DHT22;6141;49.092;8.516;2023-08-08T03:49:43;15.50;46.40
12156;DHT22;6141;49.092;8.516;2023-08-08T03:52:12;15.50;46.70
12156;DHT22;6141;49.092;8.516;2023-08-08T03:54:40;15.40;47.20
12156;DHT22;6141;49.092;8.516;2023-08-08T03:57:10;15.40;47.60
12156;DHT22;6141;49.092;8.516;2023-08-08T03:59:38;15.30;48.20
12156;DHT22;6141;49.092;8.516;2023-08-08T04:02:06;15.10;49.90
12156;DHT22;6141;49.092;8.516;2023-08-08T04:04:34;15.00;49.70
12156;DHT22;6141;49.092;8.516;2023-08-08T04:07:02;15.10;49.70
12156;DHT22;6141;49.092;8.516;2023-08-08T04:09:30;15.20;48.80
12156;DHT22;6141;49.092;8.516;2023-08-08T04:11:59;15.40;48.10
12156;DHT22;6141;49.092;8.516;2023-08-08T04:14:29;15.30;47.70
12156;DHT22;6141;49.092;8.516;2023-08-08T04:16:58;15.50;47.70
12156;DHT22;6141;49.092;8.516;2023-08-08T04:19:26;15.60;46.80
12156;DHT22;6141;49.092;8.516;2023-08-08T04:21:54;15.70;45.70
12156;DHT22;6141;49.092;8.516;2023-08-08T04:24:23;15.80;45.80
12156;DHT22;6141;49.092;8.516;2023-08-08T04:26:51;15.90;45.30
12156;DHT22;6141;49.092;8.516;2023-08-08T04:29:19;16.00;44.90
12156;DHT22;6141;49.092;8.516;2023-08-08T04:31:48;16.10;44.60
12156;DHT22;6141;49.092;8.516;2023-08-08T04:34:16;16.20;44.60
12156;DHT22;6141;49.092;8.516;2023-08-08T04:36:44;16.20;44.70
12156;DHT22;6141;49.092;8.516;2023-08-08T04:39:12;16.10;44.60
12156;DHT22;6141;49.092;8.516;2023-08-08T04:41:40;16.10;44.60
12156;DHT22;6141;49.092;8.516;2023-08-08T04:44:08;16.10;44.60
12156;DHT22;6141;49.092;8.516;2023-08-08T04:46:36;16.10;44.60
12156;DHT22;6141;49.092;8.516;2023-08-08T04:49:05;16.00;45.60
12156;DHT22;6141;49.092;8.516;2023-08-08T04:51:33;15.70;47.30
12156;DHT22;6141;49.092;8.516;2023-08-08T04:54:01;15.40;48.30
12156;DHT22;6141;49.092;8.516;2023-08-08T04:56:29;15.30;50.00
12156;DHT22;6141;49.092;8.516;2023-08-08T04:58:58;15.40;49.50
12156;DHT22;6141;49.092;8.516;2023-08-08T05:01:26;15.40;49.70
12156;DHT22;6141;49.092;8.516;2023-08-08T05:03:53;15.40;50.20
12156;DHT22;6141;49.092;8.516;2023-08-08T05:06:24;15.50;49.40
12156;DHT22;6141;49.092;8.516;2023-08-08T05:08:52;15.40;49.50
12156;DHT22;6141;49.092;8.516;2023-08-08T05:11:20;15.40;49.60
12156;DHT22;6141;49.092;8.516;2023-08-08T05:13:48;15.50;49.70
12156;DHT22;6141;49.092;8.516;2023-08-08T05:16:17;15.40;50.40
12156;DHT22;6141;49.092;8.516;2023-08-08T05:18:45;15.50;50.20
12156;DHT22;6141;49.092;8.516;2023-08-08T05:21:13;15.40;50.10
12156;DHT22;6141;49.092;8.516;2023-08-08T05:23:42;15.40;50.10
12156;DHT22;6141;49.092;8.516;2023-08-08T05:26:10;15.40;50.20
12156;DHT22;6141;49.092;8.516;2023-08-08T05:28:38;15.40;50.10
12156;DHT22;6141;49.092;8.516;2023-08-08T05:31:06;15.40;50.10
12156;DHT22;6141;49.092;8.516;2023-08-08T05:33:35;15.40;50.10
12156;DHT22;6141;49.092;8.516;2023-08-08T05:36:03;15.40;50.20
12156;DHT22;6141;49.092;8.516;2023-08-08T05:38:31;15.40;51.10
12156;DHT22;6141;49.092;8.516;2023-08-08T05:41:00;15.40;50.80
12156;DHT22;6141;49.092;8.516;2023-08-08T05:43:28;15.50;50.20
12156;DHT22;6141;49.092;8.516;2023-08-08T05:45:56;15.50;50.20
12156;DHT22;6141;49.092;8.516;2023-08-08T05:48:25;15.50;50.20
12156;DHT22;6141;49.092;8.516;2023-08-08T05:50:53;15.50;50.20
12156;DHT22;6141;49.092;8.516;2023-08-08T05:53:21;15.50;50.20
12156;DHT22;6141;49.092;8.516;2023-08-08T05:55:49;15.60;50.30
12156;DHT22;6141;49.092;8.516;2023-08-08T05:58:19;15.50;49.00
12156;DHT22;6141;49.092;8.516;2023-08-08T06:00:47;15.40;50.20
12156;DHT22;6141;49.092;8.516;2023-08-08T06:03:15;15.40;50.10
12156;DHT22;6141;49.092;8.516;2023-08-08T06:05:43;15.40;50.10
12156;DHT22;6141;49.092;8.516;2023-08-08T06:08:11;15.50;50.20
12156;DHT22;6141;49.092;8.516;2023-08-08T06:10:40;15.60;50.30
12156;DHT22;6141;49.092;8.516;2023-08-08T06:13:08;15.60;49.10
12156;DHT22;6141;49.092;8.516;2023-08-08T06:15:37;15.70;49.60
12156;DHT22;6141;49.092;8.516;2023-08-08T06:18:05;15.70;49.60
12156;DHT22;6141;49.092;8.516;2023-08-08T06:20:34;15.70;48.40
12156;DHT22;6141;49.092;8.516;2023-08-08T06:23:02;15.90;48.50
12156;DHT22;6141;49.092;8.516;2023-08-08T06:25:30;16.00;48.30
12156;DHT22;6141;49.092;8.516;2023-08-08T06:27:58;16.00;47.30
12156;DHT22;6141;49.092;8.516;2023-08-08T06:30:26;16.00;47.30
12156;DHT22;6141;49.092;8.516;2023-08-08T06:32:55;16.00;47.20
12156;DHT22;6141;49.092;8.516;2023-08-08T06:35:23;16.20;46.60
12156;DHT22;6141;49.092;8.516;2023-08-08T06:37:51;16.20;46.00
12156;DHT22;6141;49.092;8.516;2023-08-08T06:40:19;16.30;44.80
12156;DHT22;6141;49.092;8.516;2023-08-08T06:42:48;16.40;45.60
12156;DHT22;6141;49.092;8.516;2023-08-08T06:45:16;16.50;45.00
12156;DHT22;6141;49.092;8.516;2023-08-08T06:47:44;16.50;44.70
12156;DHT22;6141;49.092;8.516;2023-08-08T06:50:13;16.60;45.80
12156;DHT22;6141;49.092;8.516;2023-08-08T06:52:42;16.60;44.20
12156;DHT22;6141;49.092;8.516;2023-08-08T06:55:17;16.60;43.80
12156;DHT22;6141;49.092;8.516;2023-08-08T06:57:46;16.80;42.60
12156;DHT22;6141;49.092;8.516;2023-08-08T07:00:14;16.90;42.90
12156;DHT22;6141;49.092;8.516;2023-08-08T07:02:43;17.10;42.10
12156;DHT22;6141;49.092;8.516;2023-08-08T07:05:11;17.30;39.80
12156;DHT22;6141;49.092;8.516;2023-08-08T07:07:40;17.50;40.80
12156;DHT22;6141;49.092;8.516;2023-08-08T07:10:09;17.60;38.80
12156;DHT22;6141;49.092;8.516;2023-08-08T07:12:38;17.90;39.60
12156;DHT22;6141;49.092;8.516;2023-08-08T07:15:07;18.10;38.00
12156;DHT22;6141;49.092;8.516;2023-08-08T07:17:35;18.20;38.20
12156;DHT22;6141;49.092;8.516;2023-08-08T07:20:04;18.50;37.40
12156;DHT22;6141;49.092;8.516;2023-08-08T07:22:33;18.50;35.10
12156;DHT22;6141;49.092;8.516;2023-08-08T07:25:03;18.60;36.60
12156;DHT22;6141;49.092;8.516;2023-08-08T07:27:31;18.50;34.20
12156;DHT22;6141;49.092;8.516;2023-08-08T07:29:59;18.60;34.20
12156;DHT22;6141;49.092;8.516;2023-08-08T07:32:28;18.70;34.40
12156;DHT22;6141;49.092;8.516;2023-08-08T07:34:59;18.80;34.40
12156;DHT22;6141;49.092;8.516;2023-08-08T07:37:28;18.80;33.60
12156;DHT22;6141;49.092;8.516;2023-08-08T07:39:56;18.70;33.50
12156;DHT22;6141;49.092;8.516;2023-08-08T07:42:25;18.90;35.10
12156;DHT22;6141;49.092;8.516;2023-08-08T07:44:53;19.00;32.90
12156;DHT22;6141;49.092;8.516;2023-08-08T07:47:21;19.10;30.40
12156;DHT22;6141;49.092;8.516;2023-08-08T07:49:49;19.20;32.40
12156;DHT22;6141;49.092;8.516;2023-08-08T07:52:17;19.50;32.30
12156;DHT22;6141;49.092;8.516;2023-08-08T07:54:45;19.50;29.00
12156;DHT22;6141;49.092;8.516;2023-08-08T07:57:13;19.50;29.00
12156;DHT22;6141;49.092;8.516;2023-08-08T07:59:43;19.30;29.20
12156;DHT22;6141;49.092;8.516;2023-08-08T08:02:11;19.20;28.70
12156;DHT22;6141;49.092;8.516;2023-08-08T08:04:39;19.40;29.80
12156;DHT22;6141;49.092;8.516;2023-08-08T08:07:07;19.50;30.80
12156;DHT22;6141;49.092;8.516;2023-08-08T08:09:35;19.40;28.90
12156;DHT22;6141;49.092;8.516;2023-08-08T08:12:03;19.40;28.90
12156;DHT22;6141;49.092;8.516;2023-08-08T08:14:32;19.40;27.50
12156;DHT22;6141;49.092;8.516;2023-08-08T08:17:01;19.40;27.60
12156;DHT22;6141;49.092;8.516;2023-08-08T08:19:30;19.50;26.80
12156;DHT22;6141;49.092;8.516;2023-08-08T08:21:58;19.70;26.60
12156;DHT22;6141;49.092;8.516;2023-08-08T08:24:26;19.50;26.80
12156;DHT22;6141;49.092;8.516;2023-08-08T08:26:54;19.50;27.70
12156;DHT22;6141;49.092;8.516;2023-08-08T08:29:22;19.50;28.00
12156;DHT22;6141;49.092;8.516;2023-08-08T08:31:50;19.40;27.80
12156;DHT22;6141;49.092;8.516;2023-08-08T08:34:20;19.30;28.80
12156;DHT22;6141;49.092;8.516;2023-08-08T08:36:48;19.50;28.20
12156;DHT22;6141;49.092;8.516;2023-08-08T08:39:16;19.80;29.20
12156;DHT22;6141;49.092;8.516;2023-08-08T08:41:46;20.00;28.50
12156;DHT22;6141;49.092;8.516;2023-08-08T08:44:16;20.00;28.40
12156;DHT22;6141;49.092;8.516;2023-08-08T08:46:46;20.20;28.50
12156;DHT22;6141;49.092;8.516;2023-08-08T08:49:17;20.10;27.30
12156;DHT22;6141;49.092;8.516;2023-08-08T08:51:47;20.20;28.90
12156;DHT22;6141;49.092;8.516;2023-08-08T08:54:16;20.50;28.10
12156;DHT22;6141;49.092;8.516;2023-08-08T08:56:45;20.70;27.50
12156;DHT22;6141;49.092;8.516;2023-08-08T08:59:13;20.50;27.10
12156;DHT22;6141;49.092;8.516;2023-08-08T09:01:42;20.70;27.60
12156;DHT22;6141;49.092;8.516;2023-08-08T09:04:11;20.50;26.40
12156;DHT22;6141;49.092;8.516;2023-08-08T09:06:40;20.50;27.40
12156;DHT22;6141;49.092;8.516;2023-08-08T09:09:09;20.70;27.10
12156;DHT22;6141;49.092;8.516;2023-08-08T09:11:45;20.70;26.60
12156;DHT22;6141;49.092;8.516;2023-08-08T09:14:16;20.80;26.00
12156;DHT22;6141;49.092;8.516;2023-08-08T09:16:45;20.80;24.90
12156;DHT22;6141;49.092;8.516;2023-08-08T09:19:14;21.00;24.50
12156;DHT22;6141;49.092;8.516;2023-08-08T09:21:42;21.00;26.60
12156;DHT22;6141;49.092;8.516;2023-08-08T09:24:12;21.30;26.50
12156;DHT22;6141;49.092;8.516;2023-08-08T09:26:40;21.40;26.20
12156;DHT22;6141;49.092;8.516;2023-08-08T09:29:10;21.50;24.80
12156;DHT22;6141;49.092;8.516;2023-08-08T09:31:39;21.70;25.40
12156;DHT22;6141;49.092;8.516;2023-08-08T09:34:07;21.50;22.70
12156;DHT22;6141;49.092;8.516;2023-08-08T09:36:35;21.30;22.90
12156;DHT22;6141;49.092;8.516;2023-08-08T09:39:04;21.20;24.00
12156;DHT22;6141;49.092;8.516;2023-08-08T09:41:33;21.20;25.10
12156;DHT22;6141;49.092;8.516;2023-08-08T09:44:02;21.20;26.70
12156;DHT22;6141;49.092;8.516;2023-08-08T09:46:30;21.50;25.30
12156;DHT22;6141;49.092;8.516;2023-08-08T09:48:59;21.40;24.40
12156;DHT22;6141;49.092;8.516;2023-08-08T09:51:28;21.40;23.40
12156;DHT22;6141;49.092;8.516;2023-08-08T09:53:57;21.30;24.60
12156;DHT22;6141;49.092;8.516;2023-08-08T09:56:26;21.40;24.90
12156;DHT22;6141;49.092;8.516;2023-08-08T09:58:57;21.60;23.70
12156;DHT22;6141;49.092;8.516;2023-08-08T10:01:27;21.40;22.30
12156;DHT22;6141;49.092;8.516;2023-08-08T10:03:55;21.40;23.40
12156;DHT22;6141;49.092;8.516;2023-08-08T10:06:25;21.60;23.30
12156;DHT22;6141;49.092;8.516;2023-08-08T10:08:55;21.70;22.90
12156;DHT22;6141;49.092;8.516;2023-08-08T10:11:23;21.90;23.60
12156;DHT22;6141;49.092;8.516;2023-08-08T10:13:54;22.00;19.20
12156;DHT22;6141;49.092;8.516;2023-08-08T10:16:23;21.80;20.30
12156;DHT22;6141;49.092;8.516;2023-08-08T10:18:55;21.70;19.10
12156;DHT22;6141;49.092;8.516;2023-08-08T10:21:24;21.80;20.10
12156;DHT22;6141;49.092;8.516;2023-08-08T10:24:02;21.70;18.90
12156;DHT22;6141;49.092;8.516;2023-08-08T10:26:30;21.90;18.70
12156;DHT22;6141;49.092;8.516;2023-08-08T10:29:00;21.70;21.20
12156;DHT22;6141;49.092;8.516;2023-08-08T10:31:33;21.90;20.40
12156;DHT22;6141;49.092;8.516;2023-08-08T10:34:04;22.20;19.40
12156;DHT22;6141;49.092;8.516;2023-08-08T10:36:48;22.20;18.10
12156;DHT22;6141;49.092;8.516;2023-08-08T10:39:18;22.20;17.70
12156;DHT22;6141;49.092;8.516;2023-08-08T10:41:49;22.40;19.30
12156;DHT22;6141;49.092;8.516;2023-08-08T10:44:25;22.50;19.10
12156;DHT22;6141;49.092;8.516;2023-08-08T10:46:55;22.50;17.90
12156;DHT22;6141;49.092;8.516;2023-08-08T10:49:26;22.50;17.50
12156;DHT22;6141;49.092;8.516;2023-08-08T10:51:54;22.30;17.20
12156;DHT22;6141;49.092;8.516;2023-08-08T10:54:30;22.60;17.60
12156;DHT22;6141;49.092;8.516;2023-08-08T10:57:00;22.60;15.70
12156;DHT22;6141;49.092;8.516;2023-08-08T10:59:37;22.40;16.40
12156;DHT22;6141;49.092;8.516;2023-08-08T11:02:07;22.60;16.70
12156;DHT22;6141;49.092;8.516;2023-08-08T11:04:36;22.30;15.30
12156;DHT22;6141;49.092;8.516;2023-08-08T11:07:04;22.10;16.90
12156;DHT22;6141;49.092;8.516;2023-08-08T11:09:32;22.30;16.60
12156;DHT22;6141;49.092;8.516;2023-08-08T11:12:00;22.40;16.20
12156;DHT22;6141;49.092;8.516;2023-08-08T11:14:30;22.60;17.20
12156;DHT22;6141;49.092;8.516;2023-08-08T11:16:59;22.70;17.50
12156;DHT22;6141;49.092;8.516;2023-08-08T11:19:27;23.00;15.00
12156;DHT22;6141;49.092;8.516;2023-08-08T11:21:54;23.10;16.60
12156;DHT22;6141;49.092;8.516;2023-08-08T11:24:23;23.10;12.50
12156;DHT22;6141;49.092;8.516;2023-08-08T11:26:58;23.40;15.60
12156;DHT22;6141;49.092;8.516;2023-08-08T11:29:26;23.40;15.50
12156;DHT22;6141;49.092;8.516;2023-08-08T11:31:59;23.30;15.60
12156;DHT22;6141;49.092;8.516;2023-08-08T11:34:30;23.20;16.00
12156;DHT22;6141;49.092;8.516;2023-08-08T11:37:00;23.20;16.00
12156;DHT22;6141;49.092;8.516;2023-08-08T11:39:29;22.80;16.20
12156;DHT22;6141;49.092;8.516;2023-08-08T11:41:57;22.50;15.60
12156;DHT22;6141;49.092;8.516;2023-08-08T11:44:26;22.30;15.30
12156;DHT22;6141;49.092;8.516;2023-08-08T11:46:54;22.40;15.40
12156;DHT22;6141;49.092;8.516;2023-08-08T11:49:24;22.30;16.50
12156;DHT22;6141;49.092;8.516;2023-08-08T11:51:54;22.60;18.30
12156;DHT22;6141;49.092;8.516;2023-08-08T11:54:23;22.90;16.40
12156;DHT22;6141;49.092;8.516;2023-08-08T11:56:54;22.90;15.90
12156;DHT22;6141;49.092;8.516;2023-08-08T11:59:23;22.90;14.40
12156;DHT22;6141;49.092;8.516;2023-08-08T12:01:51;22.90;15.30
12156;DHT22;6141;49.092;8.516;2023-08-08T12:04:20;23.00;15.40
12156;DHT22;6141;49.092;8.516;2023-08-08T12:07:00;23.10;15.60
12156;DHT22;6141;49.092;8.516;2023-08-08T12:09:30;23.10;15.90
12156;DHT22;6141;49.092;8.516;2023-08-08T12:12:00;23.20;15.20
12156;DHT22;6141;49.092;8.516;2023-08-08T12:14:28;23.50;15.00
12156;DHT22;6141;49.092;8.516;2023-08-08T12:16:58;23.60;15.00
12156;DHT22;6141;49.092;8.516;2023-08-08T12:19:26;23.60;15.50
12156;DHT22;6141;49.092;8.516;2023-08-08T12:21:57;23.70;15.40
12156;DHT22;6141;49.092;8.516;2023-08-08T12:24:25;23.60;14.20
12156;DHT22;6141;49.092;8.516;2023-08-08T12:26:53;23.60;13.00
12156;DHT22;6141;49.092;8.516;2023-08-08T12:29:21;23.50;12.30
12156;DHT22;6141;49.092;8.516;2023-08-08T12:31:49;23.70;13.60
12156;DHT22;6141;49.092;8.516;2023-08-08T12:34:17;23.70;13.40
12156;DHT22;6141;49.092;8.516;2023-08-08T12:36:45;23.60;12.60
12156;DHT22;6141;49.092;8.516;2023-08-08T12:39:14;23.80;12.30
12156;DHT22;6141;49.092;8.516;2023-08-08T12:41:42;23.60;13.50
12156;DHT22;6141;49.092;8.516;2023-08-08T12:44:10;23.60;14.10
12156;DHT22;6141;49.092;8.516;2023-08-08T12:46:38;23.60;14.80
12156;DHT22;6141;49.092;8.516;2023-08-08T12:49:06;23.90;14.60
12156;DHT22;6141;49.092;8.516;2023-08-08T12:51:35;24.10;14.50
12156;DHT22;6141;49.092;8.516;2023-08-08T12:54:03;24.10;11.20
12156;DHT22;6141;49.092;8.516;2023-08-08T12:56:33;23.90;12.20
12156;DHT22;6141;49.092;8.516;2023-08-08T12:59:03;24.00;11.90
12156;DHT22;6141;49.092;8.516;2023-08-08T13:01:31;23.90;13.50
12156;DHT22;6141;49.092;8.516;2023-08-08T13:03:59;23.90;11.10
12156;DHT22;6141;49.092;8.516;2023-08-08T13:06:44;24.00;11.10
12156;DHT22;6141;49.092;8.516;2023-08-08T13:09:12;24.10;13.00
12156;DHT22;6141;49.092;8.516;2023-08-08T13:11:42;23.50;10.80
12156;DHT22;6141;49.092;8.516;2023-08-08T13:14:11;23.80;13.00
12156;DHT22;6141;49.092;8.516;2023-08-08T13:16:39;23.90;12.10
12156;DHT22;6141;49.092;8.516;2023-08-08T13:19:07;24.00;12.60
12156;DHT22;6141;49.092;8.516;2023-08-08T13:21:35;23.90;10.60
12156;DHT22;6141;49.092;8.516;2023-08-08T13:24:04;23.90;11.00
12156;DHT22;6141;49.092;8.516;2023-08-08T13:26:32;23.80;10.60
12156;DHT22;6141;49.092;8.516;2023-08-08T13:29:02;23.60;10.80
12156;DHT22;6141;49.092;8.516;2023-08-08T13:31:30;23.70;11.90
12156;DHT22;6141;49.092;8.516;2023-08-08T13:33:58;23.90;11.10
12156;DHT22;6141;49.092;8.516;2023-08-08T13:36:26;23.80;12.00
12156;DHT22;6141;49.092;8.516;2023-08-08T13:38:54;23.70;10.90
12156;DHT22;6141;49.092;8.516;2023-08-08T13:41:22;23.70;11.00
12156;DHT22;6141;49.092;8.516;2023-08-08T13:43:50;23.80;11.10
12156;DHT22;6141;49.092;8.516;2023-08-08T13:46:19;23.90;11.70
12156;DHT22;6141;49.092;8.516;2023-08-08T13:48:47;23.70;10.90
12156;DHT22;6141;49.092;8.516;2023-08-08T13:51:15;23.50;11.00
12156;DHT22;6141;49.092;8.516;2023-08-08T13:53:44;23.30;11.90
12156;DHT22;6141;49.092;8.516;2023-08-08T13:56:12;23.20;11.40
12156;DHT22;6141;49.092;8.516;2023-08-08T13:58:40;23.10;12.70
12156;DHT22;6141;49.092;8.516;2023-08-08T14:01:08;23.00;11.50
12156;DHT22;6141;49.092;8.516;2023-08-08T14:03:38;23.10;10.40
12156;DHT22;6141;49.092;8.516;2023-08-08T14:06:07;23.30;10.60
12156;DHT22;6141;49.092;8.516;2023-08-08T14:08:35;23.50;10.20
12156;DHT22;6141;49.092;8.516;2023-08-08T14:11:03;23.40;10.80
12156;DHT22;6141;49.092;8.516;2023-08-08T14:13:31;23.50;12.20
12156;DHT22;6141;49.092;8.516;2023-08-08T14:16:01;23.40;10.60
12156;DHT22;6141;49.092;8.516;2023-08-08T14:18:29;23.50;10.70
12156;DHT22;6141;49.092;8.516;2023-08-08T14:20:58;23.70;10.20
12156;DHT22;6141;49.092;8.516;2023-08-08T14:23:27;23.70;8.70
12156;DHT22;6141;49.092;8.516;2023-08-08T14:25:55;23.60;10.50
12156;DHT22;6141;49.092;8.516;2023-08-08T14:28:23;23.70;10.20
12156;DHT22;6141;49.092;8.516;2023-08-08T14:30:54;23.70;10.90
12156;DHT22;6141;49.092;8.516;2023-08-08T14:33:22;23.60;10.80
12156;DHT22;6141;49.092;8.516;2023-08-08T14:35:50;23.60;10.80
12156;DHT22;6141;49.092;8.516;2023-08-08T14:38:24;23.70;11.50
12156;DHT22;6141;49.092;8.516;2023-08-08T14:40:52;23.60;10.00
12156;DHT22;6141;49.092;8.516;2023-08-08T14:43:20;23.50;10.50
12156;DHT22;6141;49.092;8.516;2023-08-08T14:45:50;23.80;11.30
12156;DHT22;6141;49.092;8.516;2023-08-08T14:48:18;23.90;9.60
12156;DHT22;6141;49.092;8.516;2023-08-08T14:50:46;23.90;9.20
12156;DHT22;6141;49.092;8.516;2023-08-08T14:53:14;23.70;9.40
12156;DHT22;6141;49.092;8.516;2023-08-08T14:55:44;23.60;10.30
12156;DHT22;6141;49.092;8.516;2023-08-08T14:58:12;23.60;10.80
12156;DHT22;6141;49.092;8.516;2023-08-08T15:00:40;23.60;10.50
12156;DHT22;6141;49.092;8.516;2023-08-08T15:03:09;23.70;10.90
12156;DHT22;6141;49.092;8.516;2023-08-08T15:05:37;23.70;10.90
12156;DHT22;6141;49.092;8.516;2023-08-08T15:08:06;23.90;12.50
12156;DHT22;6141;49.092;8.516;2023-08-08T15:10:36;24.00;10.80
12156;DHT22;6141;49.092;8.516;2023-08-08T15:13:05;23.70;10.10
12156;DHT22;6141;49.092;8.516;2023-08-08T15:15:33;23.90;10.80
12156;DHT22;6141;49.092;8.516;2023-08-08T15:18:01;23.90;11.00
12156;DHT22;6141;49.092;8.516;2023-08-08T15:20:30;23.80;11.00
12156;DHT22;6141;49.092;8.516;2023-08-08T15:22:58;23.90;12.10
12156;DHT22;6141;49.092;8.516;2023-08-08T15:25:26;23.70;11.50
12156;DHT22;6141;49.092;8.516;2023-08-08T15:27:54;23.60;10.80
12156;DHT22;6141;49.092;8.516;2023-08-08T15:30:24;23.50;10.70
12156;DHT22;6141;49.092;8.516;2023-08-08T15:32:52;23.30;11.90
12156;DHT22;6141;49.092;8.516;2023-08-08T15:35:20;23.20;12.10
12156;DHT22;6141;49.092;8.516;2023-08-08T15:37:48;23.20;13.10
12156;DHT22;6141;49.092;8.516;2023-08-08T15:40:16;23.20;12.90
12156;DHT22;6141;49.092;8.516;2023-08-08T15:42:44;23.20;12.90
12156;DHT22;6141;49.092;8.516;2023-08-08T15:45:13;23.10;13.40
12156;DHT22;6141;49.092;8.516;2023-08-08T15:47:42;23.20;13.50
12156;DHT22;6141;49.092;8.516;2023-08-08T15:50:10;23.20;13.10
12156;DHT22;6141;49.092;8.516;2023-08-08T15:52:38;23.00;14.40
12156;DHT22;6141;49.092;8.516;2023-08-08T15:55:07;22.90;13.20
12156;DHT22;6141;49.092;8.516;2023-08-08T15:57:36;23.00;14.00